createdAt,value
2022-11-09T00:03:55.311Z,8.10
2022-11-09T00:08:59.425Z,8.08
2022-11-09T00:14:05.081Z,8.08
2022-11-09T00:19:06.860Z,7.73
2022-11-09T00:24:09.321Z,7.87
2022-11-09T00:29:11.085Z,8.04
2022-11-09T00:34:12.886Z,7.97
2022-11-09T00:39:17.322Z,8.09
2022-11-09T00:44:19.118Z,7.96
2022-11-09T00:49:20.825Z,8.14
2022-11-09T00:54:22.454Z,8.32
2022-11-09T00:59:24.381Z,8.31
2022-11-09T01:04:26.101Z,8.26
2022-11-09T01:09:28.022Z,8.13
2022-11-09T01:14:30.048Z,8.19
2022-11-09T01:19:32.010Z,8.24
2022-11-09T01:24:33.833Z,8.22
2022-11-09T01:29:35.659Z,8.14
2022-11-09T01:34:38.191Z,8.14
2022-11-09T01:39:39.841Z,8.04
2022-11-09T01:44:41.615Z,8.07
2022-11-09T01:49:52.749Z,7.97
2022-11-09T01:55:03.104Z,7.63
2022-11-09T02:00:11.859Z,7.61
2022-11-09T02:05:22.064Z,7.70
2022-11-09T02:10:33.672Z,7.63
2022-11-09T02:15:39.163Z,7.55
2022-11-09T02:20:49.284Z,7.53
2022-11-09T02:26:01.529Z,7.57
2022-11-09T02:31:06.737Z,7.63
2022-11-09T02:36:08.600Z,7.30
2022-11-09T02:41:12.991Z,7.26
2022-11-09T02:46:24.124Z,7.34
2022-11-09T02:51:25.882Z,7.40
2022-11-09T02:56:29.198Z,7.41
2022-11-09T03:01:31.523Z,7.30
2022-11-09T03:06:36.803Z,7.16
2022-11-09T03:11:44.836Z,7.07
2022-11-09T03:16:50.676Z,6.97
2022-11-09T03:21:53.422Z,6.96
2022-11-09T03:26:58.484Z,6.97
2022-11-09T03:32:00.602Z,6.91
2022-11-09T03:37:02.545Z,6.81
2022-11-09T03:42:04.890Z,6.77
2022-11-09T03:47:06.874Z,6.80
2022-11-09T03:52:08.640Z,6.76
2022-11-09T03:57:10.326Z,6.86
2022-11-09T04:02:12.061Z,6.96
2022-11-09T04:07:13.873Z,6.91
2022-11-09T04:12:15.640Z,7.06
2022-11-09T04:17:17.332Z,7.10
2022-11-09T04:22:19.138Z,7.10
2022-11-09T04:27:20.856Z,7.09
2022-11-09T04:32:22.619Z,7.07
2022-11-09T04:37:24.441Z,7.13
2022-11-09T04:42:26.124Z,7.11
2022-11-09T04:47:27.970Z,7.12
2022-11-09T04:52:29.693Z,7.19
2022-11-09T04:57:31.458Z,7.24
2022-11-09T05:02:33.179Z,7.28
2022-11-09T05:07:34.905Z,7.28
2022-11-09T05:12:36.532Z,7.32
2022-11-09T05:17:38.181Z,7.50
2022-11-09T05:22:59.544Z,7.43
2022-11-09T05:28:01.534Z,7.12
2022-11-09T05:33:03.449Z,7.05
2022-11-09T05:38:05.177Z,7.07
2022-11-09T05:43:06.940Z,7.29
2022-11-09T05:48:09.160Z,7.37
2022-11-09T05:53:12.188Z,7.46
2022-11-09T05:58:14.081Z,7.52
2022-11-09T06:03:15.756Z,7.45
2022-11-09T06:08:17.435Z,7.41
2022-11-09T06:13:19.503Z,7.47
2022-11-09T06:18:25.492Z,7.56
2022-11-09T06:23:27.722Z,8.36
2022-11-09T06:28:29.996Z,8.68
2022-11-09T06:33:33.764Z,8.93
2022-11-09T06:38:35.654Z,9.07
2022-11-09T06:43:37.454Z,9.16
2022-11-09T06:48:39.391Z,9.28
2022-11-09T06:53:41.437Z,8.77
2022-11-09T06:58:43.571Z,8.31
2022-11-09T07:03:45.303Z,8.29
2022-11-09T07:08:47.079Z,8.70
2022-11-09T07:13:54.787Z,8.70
2022-11-09T07:18:58.920Z,8.35
2022-11-09T07:24:00.688Z,7.95
2022-11-09T07:29:02.377Z,7.85
2022-11-09T07:34:04.887Z,7.90
2022-11-09T07:39:06.595Z,8.05
2022-11-09T07:44:08.926Z,8.24
2022-11-09T07:49:10.701Z,8.49
2022-11-09T07:54:12.709Z,8.72
2022-11-09T07:59:14.382Z,8.89
2022-11-09T08:04:16.141Z,8.99
2022-11-09T08:09:18.484Z,9.06
2022-11-09T08:14:20.373Z,9.22
2022-11-09T08:19:22.131Z,9.40
2022-11-09T08:24:24.370Z,9.56
2022-11-09T08:29:26.096Z,9.72
2022-11-09T08:34:27.859Z,9.84
2022-11-09T08:39:29.543Z,9.90
2022-11-09T08:44:31.276Z,9.98
2022-11-09T08:49:32.962Z,10.07
2022-11-09T08:54:36.331Z,10.14
2022-11-09T08:59:38.306Z,10.20
2022-11-09T09:04:40.501Z,10.29
2022-11-09T09:09:42.209Z,10.40
2022-11-09T09:14:43.897Z,10.52
2022-11-09T09:19:49.805Z,10.66
2022-11-09T09:24:51.904Z,10.78
2022-11-09T09:29:53.741Z,10.90
2022-11-09T09:34:55.481Z,11.08
2022-11-09T09:39:57.175Z,11.25
2022-11-09T09:45:04.687Z,11.38
2022-11-09T09:50:14.275Z,11.53
2022-11-09T09:55:24.450Z,11.74
2022-11-09T10:00:27.903Z,11.93
2022-11-09T10:05:44.382Z,12.10
2022-11-09T10:10:56.185Z,12.26
2022-11-09T10:16:29.619Z,12.44
2022-11-09T10:21:43.485Z,12.65
2022-11-09T10:26:55.097Z,12.91
2022-11-09T10:32:14.548Z,13.13
2022-11-09T10:37:22.889Z,13.30
2022-11-09T10:42:24.569Z,13.44
2022-11-09T10:47:47.920Z,13.59
2022-11-09T10:53:10.754Z,13.72
2022-11-09T10:58:47.242Z,13.86
2022-11-09T11:04:22.948Z,14.00
2022-11-09T11:09:43.612Z,14.07
2022-11-09T11:15:14.435Z,14.16
2022-11-09T11:20:37.541Z,14.23
2022-11-09T11:26:23.646Z,14.31
2022-11-09T11:31:44.314Z,14.34
2022-11-09T11:37:35.415Z,14.35
2022-11-09T11:43:17.238Z,14.36
2022-11-09T11:48:41.512Z,14.36
2022-11-09T11:54:01.700Z,14.37
2022-11-09T11:59:33.170Z,14.35
2022-11-09T12:05:12.428Z,14.36
2022-11-09T12:11:01.793Z,14.39
2022-11-09T12:16:28.422Z,14.44
2022-11-09T12:22:18.380Z,14.54
2022-11-09T12:28:21.769Z,14.76
2022-11-09T12:33:49.426Z,14.89
2022-11-09T12:39:25.974Z,14.93
2022-11-09T12:45:01.789Z,15.01
2022-11-09T12:50:25.524Z,15.05
2022-11-09T12:55:55.837Z,15.22
2022-11-09T13:01:34.578Z,15.22
2022-11-09T13:07:04.144Z,15.25
2022-11-09T13:12:39.216Z,15.29
2022-11-09T13:18:23.871Z,15.32
2022-11-09T13:24:03.332Z,15.32
2022-11-09T13:29:30.804Z,15.27
2022-11-09T13:34:56.273Z,15.24
2022-11-09T13:40:31.671Z,15.20
2022-11-09T13:45:55.929Z,15.23
2022-11-09T13:51:35.540Z,15.20
2022-11-09T13:56:56.852Z,15.13
2022-11-09T14:02:22.806Z,15.08
2022-11-09T14:07:43.383Z,15.00
2022-11-09T14:13:34.494Z,14.89
2022-11-09T14:19:17.970Z,14.83
2022-11-09T14:24:38.564Z,14.72
2022-11-09T14:30:02.356Z,14.65
2022-11-09T14:35:22.957Z,14.49
2022-11-09T14:40:45.771Z,14.34
2022-11-09T14:46:07.559Z,14.28
2022-11-09T14:51:33.291Z,14.17
2022-11-09T14:56:55.190Z,14.02
2022-11-09T15:02:18.405Z,13.94
2022-11-09T15:07:38.707Z,13.86
2022-11-09T15:13:02.300Z,13.67
2022-11-09T15:18:33.476Z,13.64
2022-11-09T15:24:17.589Z,13.57
2022-11-09T15:29:42.995Z,13.50
2022-11-09T15:35:13.578Z,13.38
2022-11-09T15:40:33.597Z,13.28
2022-11-09T15:45:54.858Z,13.21
2022-11-09T15:51:16.014Z,13.15
2022-11-09T15:56:36.495Z,13.13
2022-11-09T16:01:56.943Z,13.07
2022-11-09T16:07:17.468Z,13.01
2022-11-09T16:12:39.476Z,13.10
2022-11-09T16:18:04.114Z,13.15
2022-11-09T16:23:25.348Z,13.13
2022-11-09T16:28:46.319Z,13.13
2022-11-09T16:34:07.684Z,13.07
2022-11-09T16:39:28.071Z,12.96
2022-11-09T16:44:49.449Z,12.84
2022-11-09T16:50:09.865Z,12.75
2022-11-09T16:55:30.833Z,12.72
2022-11-09T17:06:33.875Z,12.60
2022-11-09T17:11:54.220Z,12.67
2022-11-09T17:17:21.273Z,12.66
2022-11-09T17:22:46.109Z,12.61
2022-11-09T17:28:07.625Z,12.70
2022-11-09T17:33:28.469Z,12.81
2022-11-09T17:38:48.902Z,12.88
2022-11-09T17:44:09.625Z,12.96
2022-11-09T17:49:29.875Z,13.17
2022-11-09T17:54:50.475Z,13.30
2022-11-09T18:00:11.481Z,13.37
2022-11-09T18:05:31.867Z,13.40
2022-11-09T18:10:51.900Z,13.42
2022-11-09T18:16:17.728Z,13.43
2022-11-09T18:21:39.122Z,13.41
2022-11-09T18:26:59.929Z,13.38
2022-11-09T18:32:20.045Z,13.37
2022-11-09T18:37:40.777Z,13.34
2022-11-09T18:43:01.264Z,13.33
2022-11-09T18:48:21.994Z,13.32
2022-11-09T18:53:44.431Z,13.32
2022-11-09T18:59:05.104Z,13.30
2022-11-09T19:04:25.932Z,13.29
2022-11-09T19:09:46.139Z,13.27
2022-11-09T19:15:07.456Z,13.28
2022-11-09T19:20:28.987Z,13.23
2022-11-09T19:25:50.271Z,13.20
2022-11-09T19:31:18.795Z,13.18
2022-11-09T19:36:39.604Z,13.16
2022-11-09T19:41:59.496Z,13.14
2022-11-09T19:47:20.093Z,13.11
2022-11-09T19:52:40.808Z,13.08
2022-11-09T19:58:01.124Z,13.07
2022-11-09T20:03:21.530Z,13.03
2022-11-09T20:08:41.878Z,13.01
2022-11-09T20:14:06.029Z,12.94
2022-11-09T20:19:26.160Z,12.88
2022-11-09T20:24:46.610Z,12.87
2022-11-09T20:30:07.641Z,12.90
2022-11-09T20:35:28.192Z,12.89
2022-11-09T20:41:00.145Z,12.90
2022-11-09T20:46:22.913Z,12.88
2022-11-09T20:51:43.301Z,12.83
2022-11-09T20:57:03.772Z,12.77
2022-11-09T21:02:24.378Z,12.79
2022-11-09T21:07:44.640Z,12.78
2022-11-09T21:13:05.131Z,12.72
2022-11-09T21:18:25.544Z,12.71
2022-11-09T21:24:04.692Z,12.66
2022-11-09T21:29:43.535Z,12.70
2022-11-09T21:35:04.808Z,12.68
2022-11-09T21:40:25.099Z,12.66
2022-11-09T21:45:49.287Z,12.69
2022-11-09T21:51:09.321Z,12.69
2022-11-09T21:56:30.127Z,12.66
2022-11-09T22:01:52.052Z,12.69
2022-11-09T22:07:12.698Z,12.66
2022-11-09T22:12:51.653Z,12.66
2022-11-09T22:18:31.933Z,12.61
2022-11-09T22:23:52.285Z,12.60
2022-11-09T22:29:12.400Z,12.60
2022-11-09T22:34:32.586Z,12.61
2022-11-09T22:39:52.728Z,12.61
2022-11-09T22:45:13.152Z,12.60
2022-11-09T22:50:33.335Z,12.58
2022-11-09T22:55:58.730Z,12.59
2022-11-09T23:01:20.451Z,12.56
2022-11-09T23:06:40.898Z,12.54
2022-11-09T23:12:01.379Z,12.55
2022-11-09T23:17:40.295Z,12.53
2022-11-09T23:23:00.621Z,12.51
2022-11-09T23:28:21.395Z,12.51
2022-11-09T23:33:42.543Z,12.46
2022-11-09T23:39:03.048Z,12.43
2022-11-09T23:44:23.309Z,12.41
2022-11-09T23:49:43.909Z,12.45
2022-11-09T23:55:04.592Z,12.51
